• Join FlightAware (Why Join?)
  • Login
  • US Flag 
04:53PM EDT


 

Airport Tracker/Info


-or-


 

Live Flight TrackerFlight Track Log ✈ EJA729 ✈ 22-Jun-2013 ✈ KBCT - TNCM / SXM

Flight Track Log - Related Links

Times and Time Zones

All times are in EDT time to prevent confusion due to time zone crossing. See the EJA729 flight status page for this flight to view local times or setup timezone preferences in your user account.

Time Position Orientation Groundspeed Altitude Reporting Facility
EDT Latitude Longitude Course Direction KTS MPH feet Rate Location/Type
09:23AM 26.4617 -80.0244 90° East 224 258 4,600  Level Miami Center
09:24AM 26.5108 -79.9747 42° Northeast 262 302 7,100 1,200 Climbing Miami Center
09:25AM 26.5728 -79.9042 46° Northeast 273 314 7,100  Level Miami Center
09:26AM 26.5828 -79.8372 81° East 281 323 7,100  Level Miami Center
09:27AM 26.5908 -79.7467 84° East 274 315 7,100  Level Miami Center
09:28AM 26.6333 -79.4082 90° East  Level FlightAware Approximate
09:28AM 26.5983 -79.6725 84° East 268 308 7,100  Level Miami Center
09:29AM 26.6086 -79.5822 83° East 273 314 8,500 1,020 Climbing Miami Center
09:30AM 26.6161 -79.5033 84° East 273 314 9,200 1,680 Climbing Miami Center
09:31AM 26.6283 -79.4061 82° East 279 321 11,900 2,700 Climbing Miami Center
09:32AM 26.6361 -79.3203 84° East 298 343 14,700 2,760 Climbing Miami Center
09:33AM 26.6506 -79.2089 82° East 314 361 17,500 2,700 Climbing Miami Center
09:34AM 26.5978 -79.1103 121° Southeast 327 376 20,100 1,920 Climbing Miami Center
09:35AM 26.5386 -79.0094 123° Southeast 347 399 21,400 1,500 Climbing Miami Center
09:36AM 26.4733 -78.9014 124° Southeast 384 442 23,100 1,680 Climbing Miami Center
09:37AM 26.4058 -78.7911 124° Southeast 419 482 24,800 1,680 Climbing Miami Center
09:38AM 26.3383 -78.6789 124° Southeast 434 499 26,500 1,680 Climbing Miami Center
09:39AM 26.2792 -78.5736 122° Southeast 439 505 28,200 1,620 Climbing Miami Center
09:40AM 26.2114 -78.4592 123° Southeast 444 511 29,800 1,620 Climbing Miami Center
09:41AM 26.1439 -78.3447 123° Southeast 444 511 31,500 1,500 Climbing Miami Center
09:42AM 26.0781 -78.2283 122° Southeast 444 511 32,900 1,320 Climbing Miami Center
09:43AM 26.0100 -78.1119 123° Southeast 444 511 34,200 1,260 Climbing Miami Center
09:44AM 25.9442 -77.9911 121° Southeast 454 522 35,500 1,260 Climbing Miami Center
09:45AM 25.8781 -77.8772 123° Southeast 448 516 36,800 720 Climbing Miami Center
09:46AM 25.8100 -77.7592 123° Southeast 443 510 37,000 60 Climbing Miami Center
09:47AM 25.7397 -77.6361 122° Southeast 455 524 37,000  Level Miami Center
09:48AM 25.6650 -77.5067 123° Southeast 460 529 37,000  Level Miami Center
09:49AM 25.6006 -77.3981 123° Southeast 467 537 37,000  Level Miami Center
09:50AM 25.5364 -77.2711 119° Southeast 467 537 37,000  Level Miami Center
09:51AM 25.4675 -77.1533 123° Southeast 462 532 37,000  Level Miami Center
09:52AM 25.3925 -77.0314 124° Southeast 467 537 37,000 240 Level Miami Center
09:53AM 25.3236 -76.9139 123° Southeast 462 532 37,500 660 Climbing Miami Center
09:54AM 25.2525 -76.7967 124° Southeast 462 532 38,400 720 Climbing Miami Center
09:55AM 25.1836 -76.6842 124° Southeast 462 532 39,000 300 Climbing Miami Center
09:56AM 25.1122 -76.5650 123° Southeast 456 525 39,000  Level Miami Center
09:57AM 25.0431 -76.4458 123° Southeast 461 531 39,000  Level Miami Center
09:58AM 24.9736 -76.3292 123° Southeast 461 531 39,000  Level Miami Center
09:59AM 24.9000 -76.2128 125° Southeast 461 531 39,000  Level Miami Center
10:00AM 24.8347 -76.0939 121° Southeast 461 531 39,000  Level Miami Center
10:01AM 24.7547 -75.9664 125° Southeast 461 531 39,000  Level Miami Center
10:02AM 24.6828 -75.8478 124° Southeast 461 531 39,000  Level Miami Center
10:03AM 24.6131 -75.7272 122° Southeast 461 531 39,000  Level Miami Center
10:04AM 24.5514 -75.6228 123° Southeast 461 531 39,000  Level Miami Center
10:05AM 24.4794 -75.5069 124° Southeast 461 531 39,000  Level Miami Center
10:06AM 24.4094 -75.3892 123° Southeast 461 531 39,000  Level Miami Center
10:07AM 24.3392 -75.2714 123° Southeast 461 531 39,000  Level Miami Center
10:08AM 24.2667 -75.1561 125° Southeast 461 531 39,000  Level Miami Center
10:09AM 24.1964 -75.0386 123° Southeast 461 531 39,000  Level Miami Center
10:10AM 24.1239 -74.9236 125° Southeast 461 531 39,000  Level Miami Center
10:11AM 24.0514 -74.8064 124° Southeast 461 531 39,000  Level Miami Center
10:12AM 23.9828 -74.6914 123° Southeast 461 531 39,000  Level Miami Center
10:13AM 23.9100 -74.5769 125° Southeast 461 531 39,000  Level Miami Center
10:14AM 23.8372 -74.4644 125° Southeast 461 531 39,000  Level Miami Center
10:15AM 23.7664 -74.3478 124° Southeast 461 531 39,000  Level Miami Center
10:16AM 23.6933 -74.2314 124° Southeast 461 531 39,000  Level Miami Center
10:17AM 23.6264 -74.1172 123° Southeast 461 531 39,000  Level Miami Center
10:18AM 23.5533 -74.0008 124° Southeast 461 531 39,000  Level Miami Center
10:19AM 23.4736 -73.8850 127° Southeast 461 531 39,000  Level Miami Center
10:20AM 23.4067 -73.7711 123° Southeast 461 531 39,000  Level Miami Center
10:21AM 23.3292 -73.6575 127° Southeast 461 531 39,000  Level Miami Center
10:22AM 23.2619 -73.5417 122° Southeast 467 537 39,000  Level Miami Center
10:23AM 23.1883 -73.4261 125° Southeast 462 532 39,000  Level Miami Center
10:24AM 23.1144 -73.3083 124° Southeast 462 532 39,000  Level Miami Center
10:25AM 23.0428 -73.1908 124° Southeast 462 532 39,000  Level Miami Center
10:26AM 22.9625 -73.0692 126° Southeast 462 532 39,000  Level Miami Center
10:27AM 22.8883 -72.9517 124° Southeast 462 532 39,000  Level Miami Center
10:28AM 22.8144 -72.8369 125° Southeast 462 532 39,000  Level Miami Center
10:29AM 22.7425 -72.7242 125° Southeast 462 532 39,000  Level Miami Center
10:30AM 22.6703 -72.6075 124° Southeast 462 532 39,000  Level Miami Center
10:31AM 22.5939 -72.4908 125° Southeast 462 532 39,000  Level Miami Center
10:32AM 22.5194 -72.3764 125° Southeast 462 532 39,000  Level Miami Center
10:33AM 22.4450 -72.2597 125° Southeast 462 532 39,000  Level Miami Center
10:34AM 22.3706 -72.1458 125° Southeast 462 532 39,000  Level Miami Center
10:35AM 22.2981 -72.0294 124° Southeast 462 532 39,000  Level Miami Center
10:36AM 22.2214 -71.9136 126° Southeast 468 539 39,000  Level Miami Center
10:37AM 22.1467 -71.8022 126° Southeast 463 533 39,000  Level Miami Center
10:38AM 22.0717 -71.6842 124° Southeast 463 533 39,000  Level Miami Center
10:39AM 21.9967 -71.5661 124° Southeast 463 533 39,000  Level Miami Center
10:40AM 21.9197 -71.4508 126° Southeast 469 540 39,000  Level Miami Center
10:41AM 21.8447 -71.3353 125° Southeast 474 545 39,000  Level Miami Center
10:42AM 21.7650 -71.2158 126° Southeast 480 552 39,000  Level Miami Center
10:43AM 21.6919 -71.0983 124° Southeast 480 552 39,000  Level Miami Center
10:44AM 21.6211 -70.9900 125° Southeast 480 552 39,000  Level Miami Center
10:45AM 21.5414 -70.8731 126° Southeast 485 558 39,000  Level Miami Center
10:46AM 21.4617 -70.7564 126° Southeast 485 558 39,000  Level Miami Center
10:47AM 21.3819 -70.6397 126° Southeast 485 558 39,000  Level Miami Center
10:48AM 21.3044 -70.5256 126° Southeast 485 558 39,000  Level Miami Center
10:49AM 21.2267 -70.4114 126° Southeast 485 558 39,000  Level Miami Center
10:50AM 21.1508 -70.2972 125° Southeast 485 558 39,000  Level Miami Center
10:51AM 21.0731 -70.1833 126° Southeast 485 558 39,000  Level Miami Center
10:52AM 20.9950 -70.0672 126° Southeast 485 558 39,000  Level Miami Center
10:53AM 20.9172 -69.9558 127° Southeast 485 558 39,000  Level Miami Center
10:54AM 20.8411 -69.8400 125° Southeast 485 558 39,000  Level Miami Center
10:55AM 20.7650 -69.7264 126° Southeast 485 558 39,000  Level Miami Center
10:56AM 20.6847 -69.6133 127° Southeast 485 558 39,000  Level Miami Center
10:57AM 20.6064 -69.4981 126° Southeast 485 558 39,000  Level Miami Center
10:58AM 20.5322 -69.3847 125° Southeast 485 558 39,000  Level Miami Center
10:59AM 20.4542 -69.2742 127° Southeast 480 552 39,000  Level Miami Center
11:00AM 20.3758 -69.1636 127° Southeast 480 552 39,000  Level Miami Center
11:01AM 20.2992 -69.0489 125° Southeast 475 547 39,000  Level Miami Center
11:02AM 20.2228 -68.9361 126° Southeast 475 547 39,000  Level Miami Center
11:03AM 20.1444 -68.8261 127° Southeast 475 547 39,000  Level Miami Center
11:04AM 20.0681 -68.7183 127° Southeast 469 540 39,000  Level Miami Center
11:05AM 19.9933 -68.6058 125° Southeast 463 533 39,000  Level Miami Center
11:06AM 19.9150 -68.4983 128° Southeast 463 533 39,000  Level Miami Center
11:07AM 19.8381 -68.3864 126° Southeast 468 539 39,000  Level Miami Center
11:08AM 19.7675 -68.2742 124° Southeast 468 539 39,000  Level Miami Center
11:09AM 19.6847 -68.1675 129° Southeast 468 539 39,000  Level Miami Center
11:10AM 19.6436 -68.0272 107° East 468 539 39,000  Level Miami Center
11:11AM 19.6050 -67.8936 107° East 475 547 39,000  Level Miami Center
11:12AM 19.5636 -67.7558 108° East 481 554 39,000  Level Miami Center
11:13AM 19.5167 -67.5333 103° East 480 552 39,000  Level San Juan Center
11:14AM 19.4833 -67.4000 105° East 490 564 39,000  Level San Juan Center
11:15AM 19.4500 -67.2667 105° East 490 564 39,000  Level San Juan Center
11:16AM 19.4000 -67.1167 109° East 490 564 39,000  Level San Juan Center
11:17AM 19.3667 -66.9833 105° East 490 564 39,000  Level San Juan Center
11:18AM 19.3333 -66.8500 105° East 490 564 39,000  Level San Juan Center
11:19AM 19.2833 -66.7000 109° East 490 564 39,000  Level San Juan Center
11:20AM 19.2500 -66.5667 105° East 480 552 39,000  Level San Juan Center
11:21AM 19.2000 -66.4333 112° Southeast 480 552 39,000  Level San Juan Center
11:22AM 19.1667 -66.3000 105° East 480 552 39,000  Level San Juan Center
11:23AM 19.1167 -66.1667 112° Southeast 490 564 39,000 -300 Level San Juan Center
11:24AM 19.0833 -66.0167 103° East 490 564 38,400 -1,020 Descending San Juan Center
11:25AM 19.0500 -65.9000 107° East 450 518 37,000 -720 Descending San Juan Center
11:26AM 19.0333 -65.7500 97° East 460 529 37,000  Level San Juan Center
11:27AM 19.0500 -65.6167 82° East 490 564 37,000 -480 Level San Juan Center
11:28AM 19.0667 -65.4500 84° East 500 575 36,100 -1,200 Descending San Juan Center
11:29AM 19.0667 -65.3333 90° East 470 541 34,600 -1,740 Descending San Juan Center
11:30AM 19.0167 -65.2000 112° Southeast 460 529 32,600 -1,920 Descending San Juan Center
11:31AM 18.9667 -65.0833 114° Southeast 470 541 30,800 -1,800 Descending San Juan Center
11:32AM 18.9167 -64.9500 112° Southeast 470 541 29,100 -1,800 Descending San Juan Center
11:33AM 18.8667 -64.8167 112° Southeast 470 541 27,300 -1,740 Descending San Juan Center
11:34AM 18.8167 -64.7000 114° Southeast 460 529 25,700 -1,680 Descending San Juan Center
11:35AM 18.7667 -64.5833 114° Southeast 440 506 24,000 -1,560 Descending San Juan Center
11:36AM 18.7167 -64.4667 114° Southeast 430 495 22,600 -1,440 Descending San Juan Center
11:37AM 18.6667 -64.3500 114° Southeast 420 483 21,100 -1,440 Descending San Juan Center
11:38AM 18.6167 -64.2333 114° Southeast 420 483 19,700 -1,440 Descending San Juan Center
11:39AM 18.5667 -64.1167 114° Southeast 410 472 18,300 -1,380 Descending San Juan Center
11:40AM 18.5333 -64.0167 109° East 400 460 17,000 -1,440 Descending San Juan Center
11:41AM 18.4833 -63.9000 114° Southeast 390 449 15,500 -1,440 Descending San Juan Center
11:42AM 18.4500 -63.8167 113° Southeast 380 437 14,200 -1,200 Descending San Juan Center
11:43AM 18.4000 -63.7167 118° Southeast 360 414 13,100 -600 Descending San Juan Center
11:44AM 18.3500 -63.6333 122° Southeast 310 357 13,100  Level San Juan Center